Time;durP1;ratioP1;P1;durP2;ratioP2;P2;SDS_P1;SDS_P2;PMS_P1;PMS_P2;Temp;Humidity;BMP_temperature;BMP_pressure;BME280_temperature;BME280_humidity;BME280_pressure;Samples;Min_cycle;Max_cycle;Signal;HPM_P1;HPM_P2
2023/06/26 00:00:47;;;;;;;21.10;8.68;;;;;;;20.50;100.00;97289.81;4998083;28;20060;-78
2023/06/26 00:03:14;;;;;;;15.35;8.07;;;;;;;20.53;100.00;97282.19;5014619;28;20121;-78
2023/06/26 00:05:41;;;;;;;20.75;8.68;;;;;;;20.63;100.00;97287.50;5027452;28;20064;-78
2023/06/26 00:08:07;;;;;;;20.27;9.27;;;;;;;20.60;100.00;97282.41;5055074;28;20016;-78
2023/06/26 00:10:32;;;;;;;18.20;9.00;;;;;;;20.58;100.00;97275.44;5038350;28;20038;-78
2023/06/26 00:13:00;;;;;;;30.67;10.45;;;;;;;20.57;100.00;97280.00;5055066;28;20036;-77
2023/06/26 00:15:25;;;;;;;27.33;8.95;;;;;;;20.55;100.00;97287.47;5055104;28;20021;-78
2023/06/26 00:17:51;;;;;;;29.25;9.50;;;;;;;20.48;100.00;97289.16;5054889;28;20087;-78
2023/06/26 00:20:18;;;;;;;23.60;9.23;;;;;;;20.46;100.00;97280.28;5054702;28;20511;-78
2023/06/26 00:22:45;;;;;;;34.67;9.55;;;;;;;20.37;100.00;97286.69;5038488;28;20028;-78
2023/06/26 00:25:10;;;;;;;26.65;10.45;;;;;;;20.29;100.00;97281.22;5038058;28;20032;-78
2023/06/26 00:27:36;;;;;;;22.73;10.32;;;;;;;20.26;100.00;97281.56;5038183;28;20480;-78
2023/06/26 00:30:01;;;;;;;28.63;9.75;;;;;;;20.22;100.00;97285.56;5037907;28;20120;-78
2023/06/26 00:32:27;;;;;;;25.42;10.23;;;;;;;20.20;100.00;97280.31;5037886;28;20039;-78
2023/06/26 00:34:53;;;;;;;32.65;11.25;;;;;;;20.18;100.00;97286.91;5054428;28;20036;-78
2023/06/26 00:37:18;;;;;;;38.50;10.45;;;;;;;20.16;100.00;97287.06;5054130;28;20024;-78
2023/06/26 00:39:44;;;;;;;31.20;10.73;;;;;;;20.10;100.00;97295.84;5037820;28;20032;-78
2023/06/26 00:42:09;;;;;;;30.17;11.10;;;;;;;20.10;100.00;97295.00;5054435;28;20036;-78
2023/06/26 00:44:35;;;;;;;28.65;11.10;;;;;;;20.13;100.00;97294.69;5037880;28;20029;-78
2023/06/26 00:47:01;;;;;;;33.22;11.23;;;;;;;20.18;100.00;97295.91;5037556;28;20055;-78
2023/06/26 00:49:26;;;;;;;34.05;10.00;;;;;;;20.06;100.00;97288.22;5053967;28;20044;-78
2023/06/26 00:51:52;;;;;;;34.15;11.00;;;;;;;20.12;100.00;97288.38;5037559;28;20427;-78
2023/06/26 00:54:20;;;;;;;28.83;11.13;;;;;;;20.09;100.00;97291.44;5027724;28;20846;-78
2023/06/26 00:56:47;;;;;;;27.13;10.75;;;;;;;20.08;100.00;97291.59;5032613;28;20028;-78
2023/06/26 00:59:13;;;;;;;26.13;9.90;;;;;;;20.17;100.00;97296.06;5028427;28;20569;-78
2023/06/26 01:01:38;;;;;;;31.80;10.48;;;;;;;20.21;100.00;97290.13;5047547;28;20111;-78
2023/06/26 01:04:05;;;;;;;24.27;10.10;;;;;;;20.24;100.00;97291.72;5053241;28;20047;-78
2023/06/26 01:06:35;;;;;;;32.53;11.10;;;;;;;20.11;100.00;97280.41;5054103;28;20029;-78
2023/06/26 01:09:01;;;;;;;34.00;11.25;;;;;;;20.16;100.00;97291.63;5037864;28;20551;-78
2023/06/26 01:11:27;;;;;;;37.35;10.13;;;;;;;20.13;100.00;97284.66;5064509;28;20058;-78
2023/06/26 01:13:53;;;;;;;27.25;11.18;;;;;;;20.08;100.00;97280.75;5037221;28;20131;-78
2023/06/26 01:16:20;;;;;;;37.38;12.02;;;;;;;19.95;100.00;97276.59;5036818;28;20028;-78
2023/06/26 01:18:45;;;;;;;31.00;11.50;;;;;;;19.95;100.00;97284.72;5022912;28;20029;-78
2023/06/26 01:21:12;;;;;;;36.35;11.57;;;;;;;19.91;100.00;97275.19;5033845;28;20029;-78
2023/06/26 01:24:04;;;;;;;37.00;12.20;;;;;;;19.91;100.00;97279.78;5029616;28;20494;-77
2023/06/26 01:26:30;;;;;;;26.35;11.65;;;;;;;19.88;100.00;97274.66;5037148;28;20459;-77
2023/06/26 01:28:57;;;;;;;34.55;11.32;;;;;;;19.86;100.00;97282.97;5053469;28;20033;-78
2023/06/26 01:31:23;;;;;;;38.53;11.57;;;;;;;19.85;100.00;97296.69;5035701;28;20115;-77
2023/06/26 01:33:49;;;;;;;33.92;11.25;;;;;;;19.84;100.00;97290.41;5036782;28;20123;-78
2023/06/26 01:36:15;;;;;;;38.05;11.57;;;;;;;19.85;100.00;97292.13;5046384;28;20036;-78
2023/06/26 01:38:40;;;;;;;32.08;11.73;;;;;;;19.80;100.00;97289.03;5017011;28;20028;-78
2023/06/26 01:41:06;;;;;;;26.40;10.68;;;;;;;19.83;100.00;97288.72;5016965;28;20102;-78
2023/06/26 01:43:35;;;;;;;33.72;11.95;;;;;;;19.85;100.00;97292.13;5044986;28;20055;-78
2023/06/26 01:46:10;;;;;;;28.00;11.63;;;;;;;19.89;100.00;97288.09;5059708;28;20032;-78
2023/06/26 01:48:51;;;;;;;31.98;11.60;;;;;;;20.05;100.00;97281.06;5041407;28;20248;-77
2023/06/26 01:51:17;;;;;;;32.27;11.83;;;;;;;19.93;100.00;97277.78;5052876;28;20077;-77
2023/06/26 01:53:47;;;;;;;34.42;12.20;;;;;;;19.97;100.00;97274.56;5052994;28;20028;-76
2023/06/26 01:56:59;;;;;;;29.23;11.65;;;;;;;20.05;100.00;97273.78;5052936;28;20561;-78
2023/06/26 01:59:26;;;;;;;35.03;12.95;;;;;;;20.03;100.00;97264.91;5034081;28;20076;-78
2023/06/26 02:01:52;;;;;;;29.90;11.75;;;;;;;20.09;100.00;97266.97;5045331;28;20044;-78
2023/06/26 02:04:18;;;;;;;32.92;12.02;;;;;;;20.15;100.00;97270.94;5024528;28;20029;-78
2023/06/26 02:06:43;;;;;;;34.85;12.18;;;;;;;20.20;100.00;97261.28;5031425;28;20127;-78
2023/06/26 02:09:09;;;;;;;31.48;12.18;;;;;;;20.28;100.00;97255.06;5052605;28;20063;-78
2023/06/26 02:11:34;;;;;;;32.95;12.30;;;;;;;20.24;100.00;97248.25;5036218;28;20055;-78
2023/06/26 02:14:00;;;;;;;31.05;12.00;;;;;;;20.25;100.00;97252.63;5053205;28;20024;-78
2023/06/26 02:16:25;;;;;;;33.08;12.05;;;;;;;20.31;100.00;97246.59;5035811;28;20032;-78
2023/06/26 02:18:51;;;;;;;29.17;11.52;;;;;;;20.29;100.00;97251.34;5052913;28;20029;-78
2023/06/26 02:21:16;;;;;;;23.45;10.00;;;;;;;20.26;100.00;97249.81;5052509;28;20117;-78
2023/06/26 02:23:42;;;;;;;24.75;8.63;;;;;;;20.30;100.00;97237.59;5036176;28;20032;-78
2023/06/26 02:26:07;;;;;;;18.40;8.43;;;;;;;20.27;100.00;97237.09;5052738;28;20029;-78
2023/06/26 02:28:34;;;;;;;22.30;9.63;;;;;;;20.23;100.00;97235.66;5052865;28;20032;-79
2023/06/26 02:31:00;;;;;;;28.83;11.18;;;;;;;20.20;100.00;97231.41;5036064;28;20033;-76
2023/06/26 02:33:26;;;;;;;24.88;11.73;;;;;;;20.22;100.00;97233.94;5036209;28;20103;-77
2023/06/26 02:35:51;;;;;;;37.60;12.85;;;;;;;20.23;100.00;97227.50;5052215;28;20056;-77
2023/06/26 02:38:17;;;;;;;35.45;13.40;;;;;;;20.28;100.00;97233.34;5032700;28;20036;-77
2023/06/26 02:40:42;;;;;;;37.72;13.48;;;;;;;20.26;100.00;97227.22;5035328;28;20033;-77
2023/06/26 02:43:08;;;;;;;43.88;12.90;;;;;;;20.22;100.00;97228.53;5048991;28;20424;-77
2023/06/26 02:45:33;;;;;;;41.40;14.52;;;;;;;20.12;100.00;97235.97;5037946;28;20067;-77
2023/06/26 02:47:59;;;;;;;44.97;14.70;;;;;;;20.10;100.00;97237.97;5056433;28;20123;-77
2023/06/26 02:50:24;;;;;;;40.15;14.82;;;;;;;20.09;100.00;97244.44;5056290;28;20475;-77
2023/06/26 02:52:52;;;;;;;47.25;14.32;;;;;;;20.10;100.00;97240.69;5039715;28;20020;-77
2023/06/26 02:55:19;;;;;;;42.60;14.52;;;;;;;20.06;100.00;97240.16;5050828;28;20020;-77
2023/06/26 02:57:44;;;;;;;46.25;14.45;;;;;;;20.06;100.00;97242.03;5038727;28;20094;-78
2023/06/26 03:00:11;;;;;;;31.98;13.27;;;;;;;20.07;100.00;97249.16;5056520;28;20029;-78
2023/06/26 03:02:36;;;;;;;50.47;12.73;;;;;;;20.08;100.00;97248.16;5039556;28;20020;-78
2023/06/26 03:05:02;;;;;;;32.70;13.30;;;;;;;20.10;100.00;97254.25;5056293;28;20028;-78
2023/06/26 03:07:28;;;;;;;30.10;10.77;;;;;;;20.12;100.00;97249.53;5039727;28;20404;-79
2023/06/26 03:09:53;;;;;;;31.30;11.55;;;;;;;20.15;100.00;97254.66;5037128;28;20404;-78
2023/06/26 03:12:19;;;;;;;35.20;12.13;;;;;;;20.12;100.00;97241.41;5052729;28;20447;-79
2023/06/26 03:14:44;;;;;;;42.95;13.30;;;;;;;20.16;100.00;97250.91;5039042;28;20032;-78
2023/06/26 03:17:10;;;;;;;31.70;11.93;;;;;;;20.12;100.00;97242.22;5051873;28;20048;-77
2023/06/26 03:19:35;;;;;;;39.08;13.43;;;;;;;20.14;100.00;97250.22;5053111;28;20020;-78
2023/06/26 03:22:01;;;;;;;64.85;18.50;;;;;;;20.18;100.00;97248.91;5055770;28;20105;-78
2023/06/26 03:24:26;;;;;;;73.57;22.77;;;;;;;20.22;100.00;97256.53;5073749;28;20020;-78
2023/06/26 03:26:52;;;;;;;42.35;12.75;;;;;;;20.19;100.00;97253.28;5055538;28;20503;-78
2023/06/26 03:29:17;;;;;;;24.02;9.27;;;;;;;20.07;100.00;97241.00;5055764;28;20025;-78
2023/06/26 03:31:43;;;;;;;28.67;11.10;;;;;;;20.08;100.00;97248.16;5038791;28;20615;-77
2023/06/26 03:34:08;;;;;;;32.40;10.98;;;;;;;20.11;100.00;97251.41;5055684;28;20020;-78
2023/06/26 03:36:35;;;;;;;33.35;10.70;;;;;;;20.05;100.00;97252.03;5048640;28;20025;-78
2023/06/26 03:39:01;;;;;;;32.58;11.02;;;;;;;20.05;100.00;97262.06;5037959;28;20036;-78
2023/06/26 03:41:26;;;;;;;40.88;12.65;;;;;;;20.02;100.00;97266.81;5049960;28;20028;-79
2023/06/26 03:43:52;;;;;;;39.25;12.15;;;;;;;20.09;100.00;97268.88;5038584;28;20447;-78
2023/06/26 03:46:17;;;;;;;38.38;12.98;;;;;;;20.09;100.00;97266.16;5038693;28;20021;-80
2023/06/26 03:48:43;;;;;;;43.75;13.25;;;;;;;20.09;100.00;97268.88;5035034;28;20052;-79
2023/06/26 03:51:08;;;;;;;39.17;13.20;;;;;;;20.15;100.00;97268.22;5048501;28;20456;-79
2023/06/26 03:53:34;;;;;;;33.15;12.32;;;;;;;20.19;100.00;97264.16;5037560;28;20024;-79
2023/06/26 03:56:00;;;;;;;32.85;12.88;;;;;;;20.18;100.00;97257.03;5037083;28;20020;-79
2023/06/26 03:58:25;;;;;;;31.67;11.77;;;;;;;20.23;100.00;97260.13;5054125;28;20017;-79
2023/06/26 04:00:51;;;;;;;32.05;13.63;;;;;;;20.26;100.00;97262.53;5040191;28;20440;-80
2023/06/26 04:03:17;;;;;;;32.40;13.48;;;;;;;20.26;100.00;97254.38;5037339;28;20119;-79
2023/06/26 04:05:43;;;;;;;38.40;13.93;;;;;;;20.31;100.00;97255.59;5054191;28;20040;-78
2023/06/26 04:08:08;;;;;;;59.97;23.63;;;;;;;20.31;100.00;97250.16;5053947;28;20032;-78
2023/06/26 04:10:36;;;;;;;31.48;12.50;;;;;;;20.34;100.00;97247.13;5037267;28;20016;-80
2023/06/26 04:13:01;;;;;;;34.28;13.65;;;;;;;20.43;100.00;97248.84;5037382;28;20506;-79
2023/06/26 04:15:27;;;;;;;24.70;12.63;;;;;;;20.53;100.00;97244.16;5037142;28;20111;-77
2023/06/26 04:17:52;;;;;;;37.58;14.93;;;;;;;20.56;100.00;97237.53;5028774;28;20485;-77
2023/06/26 04:20:18;;;;;;;47.30;15.18;;;;;;;20.65;100.00;97241.13;5034310;28;20032;-78
2023/06/26 04:22:43;;;;;;;42.85;15.57;;;;;;;20.66;100.00;97243.69;5037318;28;20499;-78
2023/06/26 04:25:11;;;;;;;45.35;15.65;;;;;;;20.73;100.00;97257.47;5048031;28;20573;-77
2023/06/26 04:27:37;;;;;;;36.97;15.80;;;;;;;20.75;100.00;97241.84;5034531;28;20028;-78
2023/06/26 04:30:03;;;;;;;44.60;16.75;;;;;;;20.84;100.00;97255.28;5049532;28;20535;-78
2023/06/26 04:32:28;;;;;;;41.38;14.32;;;;;;;20.80;100.00;97253.06;5035180;28;20082;-78
2023/06/26 04:34:54;;;;;;;28.88;13.20;;;;;;;20.77;100.00;97237.94;5031429;28;20112;-78
2023/06/26 04:37:20;;;;;;;35.03;13.57;;;;;;;20.95;100.00;97246.81;5036345;28;20068;-78
2023/06/26 04:39:45;;;;;;;34.33;15.00;;;;;;;20.87;100.00;97241.38;5036951;28;20032;-78
2023/06/26 04:42:12;;;;;;;46.53;15.30;;;;;;;20.91;100.00;97242.75;5036709;28;20028;-78
2023/06/26 04:44:37;;;;;;;53.78;16.13;;;;;;;21.09;100.00;97245.34;5053563;28;20404;-78
2023/06/26 04:47:04;;;;;;;41.70;14.57;;;;;;;21.21;100.00;97235.00;5036518;28;20029;-78
2023/06/26 04:49:29;;;;;;;42.35;13.40;;;;;;;21.25;100.00;97236.38;4992696;28;1278813;-78
2023/06/26 04:51:56;;;;;;;35.22;13.20;;;;;;;21.34;100.00;97238.06;5054500;28;20515;-78
2023/06/26 04:54:21;;;;;;;53.33;17.50;;;;;;;21.36;100.00;97234.16;5054037;28;20021;-79
2023/06/26 04:56:47;;;;;;;43.38;15.15;;;;;;;21.48;100.00;97230.06;5054202;28;20035;-77
2023/06/26 04:59:14;;;;;;;35.22;13.75;;;;;;;21.49;100.00;97234.50;5035696;28;20032;-76
2023/06/26 05:01:40;;;;;;;47.25;14.55;;;;;;;21.47;100.00;97236.53;5031347;28;20032;-78
2023/06/26 05:04:06;;;;;;;36.70;13.50;;;;;;;21.61;100.00;97241.31;5050861;28;20036;-77
2023/06/26 05:06:31;;;;;;;46.50;16.05;;;;;;;21.53;100.00;97245.91;5052910;28;20035;-78
2023/06/26 05:08:57;;;;;;;38.08;14.18;;;;;;;21.42;100.00;97243.50;5054001;28;20024;-77
2023/06/26 05:11:23;;;;;;;52.38;23.02;;;;;;;21.54;100.00;97253.88;5053622;28;20033;-77
2023/06/26 05:13:49;;;;;;;38.83;14.85;;;;;;;21.41;100.00;97250.00;5034288;28;20017;-77
2023/06/26 05:16:15;;;;;;;43.72;16.90;;;;;;;21.61;100.00;97257.63;5036618;28;20025;-78
2023/06/26 05:18:40;;;;;;;35.33;13.65;;;;;;;21.74;100.00;97248.97;5071358;28;20406;-78
2023/06/26 05:21:06;;;;;;;50.60;14.32;;;;;;;21.80;100.00;97251.00;5036875;28;20107;-79
2023/06/26 05:23:33;;;;;;;40.13;16.42;;;;;;;21.74;100.00;97246.22;5036977;28;20484;-79
2023/06/26 05:26:00;;;;;;;41.75;19.10;;;;;;;21.78;100.00;97268.53;5036815;28;20021;-78
2023/06/26 05:28:27;;;;;;;31.02;13.52;;;;;;;21.87;100.00;97246.53;5036477;28;20035;-78
2023/06/26 05:30:53;;;;;;;58.17;26.33;;;;;;;21.82;100.00;97248.06;5028795;28;20032;-78
2023/06/26 05:33:19;;;;;;;37.17;14.23;;;;;;;21.95;100.00;97262.06;5036719;28;20019;-77
2023/06/26 05:35:45;;;;;;;36.90;12.85;;;;;;;22.01;100.00;97264.94;5031207;28;20036;-78
2023/06/26 05:38:13;;;;;;;37.25;13.68;;;;;;;22.11;100.00;97260.16;5036522;28;20025;-78
2023/06/26 05:40:42;;;;;;;28.95;13.68;;;;;;;22.33;100.00;97264.03;5036583;28;20446;-78
2023/06/26 05:43:08;;;;;;;29.52;12.52;;;;;;;22.46;100.00;97255.28;5037300;28;20086;-78
2023/06/26 05:45:34;;;;;;;27.60;12.38;;;;;;;22.63;100.00;97254.19;5052889;28;20013;-78
2023/06/26 05:47:59;;;;;;;34.35;13.32;;;;;;;22.64;100.00;97256.72;5036620;28;20077;-79
2023/06/26 05:50:27;;;;;;;28.98;12.75;;;;;;;22.87;100.00;97247.78;5053322;28;20016;-83
2023/06/26 05:52:53;;;;;;;30.15;12.48;;;;;;;23.06;100.00;97258.25;5022747;28;20025;-76
2023/06/26 05:55:19;;;;;;;30.65;12.90;;;;;;;23.36;100.00;97243.72;5062116;28;20028;-76
2023/06/26 05:57:46;;;;;;;32.08;13.15;;;;;;;23.57;100.00;97248.53;5034212;28;20025;-77
2023/06/26 06:00:12;;;;;;;30.20;13.27;;;;;;;23.52;100.00;97243.63;5029322;28;20478;-76
2023/06/26 06:02:38;;;;;;;38.47;16.98;;;;;;;23.60;100.00;97246.28;5036028;28;20403;-76
2023/06/26 06:05:05;;;;;;;58.53;33.33;;;;;;;23.60;100.00;97237.25;5036522;28;20447;-83
2023/06/26 06:07:34;;;;;;;35.05;13.77;;;;;;;23.61;100.00;97245.25;5036170;28;20020;-81
2023/06/26 06:10:01;;;;;;;22.40;10.95;;;;;;;23.56;100.00;97241.41;5015986;28;20029;-80
2023/06/26 06:12:26;;;;;;;22.08;10.13;;;;;;;23.62;100.00;97246.13;5031436;28;20090;-81
2023/06/26 06:14:52;;;;;;;20.48;10.15;;;;;;;23.59;100.00;97232.84;5047080;28;20519;-81
2023/06/26 06:17:19;;;;;;;24.98;10.55;;;;;;;23.72;100.00;97242.09;5030912;28;20384;-80
2023/06/26 06:19:45;;;;;;;42.67;22.65;;;;;;;23.69;100.00;97238.88;5030792;28;20040;-79
2023/06/26 06:22:11;;;;;;;28.67;12.88;;;;;;;23.56;100.00;97231.28;5030251;28;20021;-78
2023/06/26 06:24:36;;;;;;;48.05;27.58;;;;;;;23.62;100.00;97237.94;5013737;28;20037;-78
2023/06/26 06:27:02;;;;;;;21.13;9.77;;;;;;;23.64;100.00;97224.94;5030092;28;20471;-78
2023/06/26 06:29:27;;;;;;;18.15;8.02;;;;;;;23.73;100.00;97221.09;5029738;28;20032;-78
2023/06/26 06:31:53;;;;;;;20.67;10.70;;;;;;;23.89;100.00;97228.28;5030081;28;20029;-80
2023/06/26 06:34:18;;;;;;;17.38;7.65;;;;;;;24.13;100.00;97223.44;5030115;28;20040;-79
2023/06/26 06:36:44;;;;;;;26.00;10.35;;;;;;;24.41;100.00;97225.53;5029732;28;20032;-78
2023/06/26 06:39:09;;;;;;;18.45;9.05;;;;;;;24.73;100.00;97212.28;5029771;28;20477;-78
2023/06/26 06:41:35;;;;;;;15.13;8.88;;;;;;;25.03;100.00;97209.50;5059651;28;20029;-79
2023/06/26 06:44:00;;;;;;;16.10;9.75;;;;;;;24.88;100.00;97219.66;5029326;28;20520;-78
2023/06/26 06:46:27;;;;;;;17.30;7.65;;;;;;;25.11;100.00;97206.63;5036452;28;20104;-78
2023/06/26 06:48:53;;;;;;;15.88;6.60;;;;;;;25.14;100.00;97207.09;5049718;28;20095;-77
2023/06/26 06:51:18;;;;;;;10.55;6.78;;;;;;;25.19;100.00;97207.38;5046809;28;20036;-79
2023/06/26 06:53:44;;;;;;;10.20;6.38;;;;;;;25.32;100.00;97203.91;5050083;28;20054;-80
2023/06/26 06:56:09;;;;;;;16.02;7.07;;;;;;;25.51;100.00;97207.91;5031865;28;20040;-82
2023/06/26 06:58:35;;;;;;;13.88;6.30;;;;;;;25.77;100.00;97198.06;5049568;28;20025;-81
2023/06/26 07:01:04;;;;;;;8.68;5.90;;;;;;;25.99;100.00;97209.81;5033466;28;20039;-81
2023/06/26 07:03:30;;;;;;;19.02;6.68;;;;;;;25.92;100.00;97203.44;5027138;28;20044;-81
2023/06/26 07:05:56;;;;;;;10.10;6.35;;;;;;;25.96;100.00;97212.97;5064237;28;20032;-82
2023/06/26 07:08:21;;;;;;;11.65;6.57;;;;;;;26.03;100.00;97205.63;5049494;28;20107;-81
2023/06/26 07:10:47;;;;;;;14.65;6.82;;;;;;;25.91;100.00;97215.44;5053994;28;20418;-88
2023/06/26 07:13:12;;;;;;;13.07;6.38;;;;;;;25.57;100.00;97216.19;5031250;28;20471;-83
2023/06/26 07:15:38;;;;;;;13.00;7.30;;;;;;;25.06;100.00;97233.75;5047689;28;20063;-80
2023/06/26 07:18:03;;;;;;;23.05;16.15;;;;;;;24.68;100.00;97222.09;5029779;28;20051;-80
2023/06/26 07:20:29;;;;;;;14.35;7.40;;;;;;;24.54;100.00;97223.81;5029945;28;20095;-80
2023/06/26 07:22:54;;;;;;;11.23;6.57;;;;;;;24.52;100.00;97214.09;5055560;28;20370;-80
2023/06/26 07:25:20;;;;;;;15.75;7.65;;;;;;;24.34;100.00;97224.56;5047472;28;20035;-80
2023/06/26 07:27:45;;;;;;;20.75;9.75;;;;;;;24.22;100.00;97227.78;5029716;28;20025;-80
2023/06/26 07:30:11;;;;;;;15.35;8.45;;;;;;;24.14;100.00;97230.63;5043131;28;20141;-80
2023/06/26 07:32:37;;;;;;;14.30;7.70;;;;;;;24.06;100.00;97238.84;5041202;28;20028;-81
2023/06/26 07:35:03;;;;;;;15.82;8.68;;;;;;;24.03;100.00;97228.28;5032987;28;20024;-81
2023/06/26 07:37:29;;;;;;;15.25;8.07;;;;;;;23.85;100.00;97225.06;5016592;28;20116;-81
2023/06/26 07:39:54;;;;;;;10.75;7.00;;;;;;;23.71;100.00;97218.56;5067182;28;20111;-80
2023/06/26 07:42:20;;;;;;;46.33;29.02;;;;;;;23.56;100.00;97233.19;5052683;28;20036;-80
2023/06/26 07:44:46;;;;;;;23.35;12.93;;;;;;;23.41;100.00;97240.50;5052892;28;20032;-80
2023/06/26 07:47:11;;;;;;;12.02;7.82;;;;;;;23.40;100.00;97236.06;5046505;28;20568;-79
2023/06/26 07:49:38;;;;;;;15.75;8.25;;;;;;;23.49;100.00;97240.41;5052585;28;20032;-80
2023/06/26 07:52:04;;;;;;;21.30;11.88;;;;;;;23.44;100.00;97234.66;5047043;28;20036;-81
2023/06/26 07:54:30;;;;;;;10.40;6.68;;;;;;;23.51;100.00;97238.34;5070592;28;20105;-81
2023/06/26 07:57:01;;;;;;;12.93;5.93;;;;;;;23.61;100.00;97238.94;5052446;28;20109;-80
2023/06/26 07:59:28;;;;;;;12.40;6.45;;;;;;;23.99;100.00;97248.00;5052226;28;20093;-80
2023/06/26 08:01:56;;;;;;;17.30;6.13;;;;;;;24.23;100.00;97245.91;5052613;28;20059;-80
2023/06/26 08:04:24;;;;;;;11.93;7.35;;;;;;;25.25;100.00;97242.22;5035346;28;20040;-79
2023/06/26 08:06:51;;;;;;;10.55;6.25;;;;;;;27.79;100.00;97228.56;5052004;28;20031;-80
2023/06/26 08:09:18;;;;;;;12.68;5.97;;;;;;;28.69;100.00;97230.66;5069823;28;20024;-80
2023/06/26 08:11:44;;;;;;;7.75;4.75;;;;;;;29.21;100.00;97213.06;5052079;28;20051;-80
2023/06/26 08:14:11;;;;;;;10.35;4.97;;;;;;;29.26;100.00;97207.75;5052048;28;20060;-80
2023/06/26 08:16:37;;;;;;;17.02;5.82;;;;;;;29.34;100.00;97219.38;5035535;28;20140;-80
2023/06/26 08:19:03;;;;;;;6.65;5.10;;;;;;;31.41;94.03;97198.44;5052495;28;20504;-81
2023/06/26 08:21:29;;;;;;;12.00;5.05;;;;;;;32.94;81.83;97201.16;5051969;28;20051;-80
2023/06/26 08:23:54;;;;;;;10.65;5.03;;;;;;;32.92;78.20;97197.78;5036037;28;20028;-80
2023/06/26 08:26:20;;;;;;;11.60;4.78;;;;;;;32.85;76.46;97191.56;5051789;28;20104;-79
2023/06/26 08:28:45;;;;;;;12.77;6.45;;;;;;;33.54;72.55;97188.53;5035241;28;20086;-80
2023/06/26 08:31:11;;;;;;;14.25;6.60;;;;;;;33.40;66.35;97181.63;5051922;28;20035;-79
2023/06/26 08:33:36;;;;;;;6.95;4.53;;;;;;;33.26;70.57;97200.50;5069567;28;20396;-80
2023/06/26 08:36:02;;;;;;;8.98;4.80;;;;;;;33.62;67.50;97185.41;5035027;28;20431;-80
2023/06/26 08:38:28;;;;;;;5.78;4.65;;;;;;;35.31;63.22;97186.66;5034798;28;20036;-79
2023/06/26 08:40:53;;;;;;;7.50;4.15;;;;;;;36.52;54.68;97175.84;5050450;28;20086;-79
2023/06/26 08:43:20;;;;;;;6.80;4.68;;;;;;;36.50;54.34;97178.06;5050533;28;20078;-80
2023/06/26 08:45:46;;;;;;;6.63;4.70;;;;;;;36.45;50.72;97166.88;5051209;28;20377;-81
2023/06/26 08:48:12;;;;;;;7.20;4.63;;;;;;;34.58;58.01;97180.63;5051509;28;20049;-78
2023/06/26 08:50:38;;;;;;;6.55;4.63;;;;;;;32.26;67.69;97190.75;5051234;28;20029;-78
2023/06/26 08:53:16;;;;;;;6.32;5.22;;;;;;;30.01;85.76;97196.63;5034995;28;20024;-78
2023/06/26 08:55:43;;;;;;;13.10;5.50;;;;;;;29.28;92.28;97202.88;5034834;28;20024;-80
2023/06/26 08:58:09;;;;;;;60.10;38.92;;;;;;;29.05;100.00;97214.41;5034610;28;20039;-78
2023/06/26 09:00:34;;;;;;;27.05;18.83;;;;;;;28.38;100.00;97212.91;5051043;28;20039;-77
2023/06/26 09:03:01;;;;;;;19.13;6.95;;;;;;;28.00;100.00;97201.72;5051511;28;20032;-81
2023/06/26 09:05:31;;;;;;;19.02;8.05;;;;;;;27.73;100.00;97201.94;5051278;28;20059;-78
2023/06/26 09:07:57;;;;;;;15.32;5.28;;;;;;;27.98;100.00;97192.84;5035147;28;20029;-78
2023/06/26 09:10:22;;;;;;;7.88;5.72;;;;;;;28.69;100.00;97192.09;5034130;28;20039;-78
2023/06/26 09:12:48;;;;;;;5.35;4.30;;;;;;;30.41;89.56;97188.00;5034511;28;20477;-78
2023/06/26 09:15:20;;;;;;;10.10;5.07;;;;;;;32.04;79.32;97173.03;5051079;28;20036;-78
2023/06/26 09:17:46;;;;;;;8.38;5.15;;;;;;;33.52;70.79;97164.91;5050497;28;20051;-77
2023/06/26 09:20:14;;;;;;;24.65;16.05;;;;;;;34.64;61.77;97163.78;5034237;28;20038;-77
2023/06/26 09:22:43;;;;;;;6.60;4.15;;;;;;;35.79;55.39;97152.38;5050641;28;20035;-78
2023/06/26 09:25:09;;;;;;;7.63;4.13;;;;;;;36.92;49.48;97150.13;5050833;28;20523;-78
2023/06/26 09:27:35;;;;;;;7.32;4.57;;;;;;;36.52;48.53;97149.91;5050777;28;20029;-77
2023/06/26 09:30:07;;;;;;;6.45;4.30;;;;;;;35.78;50.70;97155.41;5050838;28;20086;-77
2023/06/26 09:32:38;;;;;;;;;;;;;;;34.90;50.76;97158.56;5051241;28;20024;-78
2023/06/26 09:35:04;;;;;;;10.48;4.22;;;;;;;34.01;56.61;97161.38;5034239;28;19944;-78
2023/06/26 09:37:30;;;;;;;9.40;6.75;;;;;;;32.74;65.62;97174.69;5033741;28;20036;-78
2023/06/26 09:39:55;;;;;;;7.68;4.55;;;;;;;31.82;72.98;97169.09;5050140;28;20039;-78
2023/06/26 09:42:24;;;;;;;6.30;4.90;;;;;;;32.88;69.24;97166.13;5033950;28;20093;-78
2023/06/26 09:44:50;;;;;;;7.50;5.07;;;;;;;34.85;57.47;97165.72;5033311;28;20508;-78
2023/06/26 09:47:18;;;;;;;5.05;4.13;;;;;;;36.48;50.79;97160.75;5049611;28;20020;-78
2023/06/26 09:49:44;;;;;;;5.72;4.03;;;;;;;37.61;46.53;97142.31;5033558;28;20123;-78
2023/06/26 09:52:15;;;;;;;6.10;4.55;;;;;;;37.45;46.52;97144.25;5050046;28;20163;-78
2023/06/26 09:54:41;;;;;;;7.93;4.63;;;;;;;37.27;46.32;97149.47;5033611;28;20395;-78
2023/06/26 09:57:10;;;;;;;6.55;4.95;;;;;;;35.17;49.44;97140.00;5033559;28;20312;-78
2023/06/26 09:59:36;;;;;;;36.70;25.33;;;;;;;34.10;55.76;97156.25;5032881;28;20032;-78
2023/06/26 10:02:02;;;;;;;5.30;4.20;;;;;;;33.23;57.90;97155.75;5049974;28;20468;-77
2023/06/26 10:04:27;;;;;;;5.45;4.25;;;;;;;33.96;56.15;97157.69;5050184;28;20377;-77
2023/06/26 10:06:56;;;;;;;6.65;4.00;;;;;;;33.94;61.27;97168.19;5049787;28;20062;-77
2023/06/26 10:09:22;;;;;;;10.23;6.60;;;;;;;33.02;65.93;97160.03;5050045;28;20028;-77
2023/06/26 10:12:05;;;;;;;11.15;5.72;;;;;;;33.30;63.20;97159.25;5050682;28;20020;-77
2023/06/26 10:14:41;;;;;;;6.47;5.05;;;;;;;35.37;53.30;97137.47;5045243;28;20138;-78
2023/06/26 10:17:09;;;;;;;9.65;4.68;;;;;;;37.19;45.95;97127.69;5052617;28;20029;-78
2023/06/26 10:19:36;;;;;;;5.82;4.45;;;;;;;36.77;45.50;97122.19;5053045;28;20532;-77
2023/06/26 10:22:03;;;;;;;10.30;4.40;;;;;;;35.11;49.10;97132.72;5034426;28;20472;-77
2023/06/26 10:24:33;;;;;;;8.13;4.00;;;;;;;33.64;55.46;97146.31;5035308;28;20047;-78
2023/06/26 10:27:22;;;;;;;8.82;4.88;;;;;;;32.08;68.18;97152.09;5035813;28;20476;-78
2023/06/26 10:29:55;;;;;;;12.75;4.90;;;;;;;31.50;74.43;97155.56;5035574;28;20028;-78
2023/06/26 10:32:25;;;;;;;8.98;4.88;;;;;;;32.01;72.79;97148.56;5049401;28;20389;-78
2023/06/26 10:34:52;;;;;;;9.52;5.00;;;;;;;32.27;68.96;97139.78;5051770;28;20029;-78
2023/06/26 10:37:17;;;;;;;10.70;5.35;;;;;;;31.78;74.69;97143.03;5052250;28;20468;-78
2023/06/26 10:39:49;;;;;;;12.90;7.15;;;;;;;31.45;80.81;97152.66;5035639;28;20189;-76
2023/06/26 10:42:15;;;;;;;20.60;12.57;;;;;;;30.80;87.54;97159.91;5052199;28;20029;-78
2023/06/26 10:44:43;;;;;;;14.00;5.22;;;;;;;30.17;91.02;97153.81;5052185;28;20023;-77
2023/06/26 10:47:08;;;;;;;8.10;5.07;;;;;;;29.77;94.92;97153.31;5036027;28;20098;-77
2023/06/26 10:49:46;;;;;;;9.68;5.03;;;;;;;29.51;94.29;97157.13;5052269;28;20539;-78
2023/06/26 10:52:12;;;;;;;7.18;4.47;;;;;;;30.29;92.72;97152.00;5070444;28;20494;-78
2023/06/26 10:54:40;;;;;;;8.98;4.30;;;;;;;32.86;72.09;97119.22;5052303;28;20020;-78
2023/06/26 10:57:10;;;;;;;6.75;4.63;;;;;;;34.88;60.58;97119.06;5052317;28;20075;-78
2023/06/26 10:59:48;;;;;;;11.82;4.63;;;;;;;36.94;49.62;97100.50;5036026;28;20024;-78
2023/06/26 11:02:13;;;;;;;4.13;3.65;;;;;;;36.95;44.40;97077.06;5035477;28;20028;-78
2023/06/26 11:04:46;;;;;;;5.60;5.00;;;;;;;37.00;44.70;97084.66;5054600;28;20028;-78
2023/06/26 11:07:36;;;;;;;5.50;4.20;;;;;;;36.60;45.40;97088.09;5056531;28;20559;-79
2023/06/26 11:10:08;;;;;;;3.70;3.40;;;;;;;35.38;46.50;97081.53;5055378;28;20037;-78
2023/06/26 11:12:37;;;;;;;10.00;4.00;;;;;;;34.82;50.74;97093.94;5039723;28;20233;-79
2023/06/26 11:15:06;;;;;;;10.82;4.57;;;;;;;33.70;54.60;97090.63;5073787;28;20028;-79